Irchester, United Kingdom
Current Conditions -  °F | °C
As of 3:50 AM on Friday 31 Oct 2014 (Local Time) from EGXT Reporting Station
Clear Clear  
Wind Chill: 55°   Ceiling: Unl
Heat Index: 55°   Visibility: 1mi
Dew Point: 54°   Wind: 8mph
Humidity: 94%   Direction: 170°S
Pressure: 30"   Gusts: NA
Location:  52.28°N, 0.65°W
Report Text: EGXT 310350Z AUTO 17007KT 1600 // NCD 13/12 Q1016
Loading
Personal Weather Stations






























Interactive Weather Map
Tropical Storm Tracking
New forecast layout! Learn more

10-Day Weather Forecast

Advertisements
Track Severe Weather on mobile